Wilkins, Nevada
Current Conditions -  °F | °C
As of 12:55 AM on Wednesday 26 Nov 2014 (Local Time) from KENV Reporting Station
Clear Clear  
Wind Chill: 45°   Ceiling: Unl
Heat Index: 45°   Visibility: 10mi
Dew Point: 28°   Wind: 0mph
Humidity: 53%   Direction: NA
Pressure: 30.34"   Gusts: NA
Location:  41.0114°N, 114.57°W
Report Text: KENV 260855Z AUTO 00000KT 10SM CLR 07/M02 A3034 RMK AO1 52003
Loading
Personal Weather Stations






























Interactive Weather Map New forecast layout! Learn more

10-Day Weather Forecast

Advertisements
Track Severe Weather on mobile